sensor_id;sensor_type;location;lat;lon;timestamp;temperature;humidity
76751;SHT31;65216;51.090;-115.352;2023-04-05T00:00:58;22.39;20.76
76751;SHT31;65216;51.090;-115.352;2023-04-05T00:03:25;22.40;20.89
76751;SHT31;65216;51.090;-115.352;2023-04-05T00:05:53;22.40;20.95
76751;SHT31;65216;51.090;-115.352;2023-04-05T00:08:20;22.39;21.04
76751;SHT31;65216;51.090;-115.352;2023-04-05T00:10:51;22.38;20.98
76751;SHT31;65216;51.090;-115.352;2023-04-05T00:13:19;22.37;20.99
76751;SHT31;65216;51.090;-115.352;2023-04-05T00:15:50;22.36;21.02
76751;SHT31;65216;51.090;-115.352;2023-04-05T00:18:22;22.36;21.08
76751;SHT31;65216;51.090;-115.352;2023-04-05T00:20:51;22.34;21.09
76751;SHT31;65216;51.090;-115.352;2023-04-05T00:23:21;22.33;21.15
76751;SHT31;65216;51.090;-115.352;2023-04-05T00:25:51;22.33;21.21
76751;SHT31;65216;51.090;-115.352;2023-04-05T00:28:18;22.31;21.19
76751;SHT31;65216;51.090;-115.352;2023-04-05T00:30:45;22.31;21.21
76751;SHT31;65216;51.090;-115.352;2023-04-05T00:33:12;22.31;21.33
76751;SHT31;65216;51.090;-115.352;2023-04-05T00:35:39;22.31;21.31
76751;SHT31;65216;51.090;-115.352;2023-04-05T00:38:06;22.31;21.37
76751;SHT31;65216;51.090;-115.352;2023-04-05T00:40:33;22.30;21.41
76751;SHT31;65216;51.090;-115.352;2023-04-05T00:43:01;22.30;21.53
76751;SHT31;65216;51.090;-115.352;2023-04-05T00:45:28;22.30;21.53
76751;SHT31;65216;51.090;-115.352;2023-04-05T00:47:55;22.28;21.61
76751;SHT31;65216;51.090;-115.352;2023-04-05T00:50:22;22.29;21.74
76751;SHT31;65216;51.090;-115.352;2023-04-05T00:52:50;22.28;21.72
76751;SHT31;65216;51.090;-115.352;2023-04-05T00:55:17;22.27;21.76
76751;SHT31;65216;51.090;-115.352;2023-04-05T00:57:45;22.27;21.81
76751;SHT31;65216;51.090;-115.352;2023-04-05T01:00:14;22.25;21.90
76751;SHT31;65216;51.090;-115.352;2023-04-05T01:02:47;22.25;21.90
76751;SHT31;65216;51.090;-115.352;2023-04-05T01:05:27;22.23;21.96
76751;SHT31;65216;51.090;-115.352;2023-04-05T01:08:10;22.20;22.04
76751;SHT31;65216;51.090;-115.352;2023-04-05T01:10:43;22.19;22.22
76751;SHT31;65216;51.090;-115.352;2023-04-05T01:13:23;22.18;22.38
76751;SHT31;65216;51.090;-115.352;2023-04-05T01:15:53;22.17;22.45
76751;SHT31;65216;51.090;-115.352;2023-04-05T01:18:20;22.16;22.61
76751;SHT31;65216;51.090;-115.352;2023-04-05T01:20:51;22.16;22.80
76751;SHT31;65216;51.090;-115.352;2023-04-05T01:23:52;22.15;22.77
76751;SHT31;65216;51.090;-115.352;2023-04-05T01:27:03;22.12;22.80
76751;SHT31;65216;51.090;-115.352;2023-04-05T01:29:49;22.10;22.94
76751;SHT31;65216;51.090;-115.352;2023-04-05T01:35:42;22.10;23.12
76751;SHT31;65216;51.090;-115.352;2023-04-05T01:38:42;22.08;23.03
76751;SHT31;65216;51.090;-115.352;2023-04-05T01:41:15;22.08;23.16
76751;SHT31;65216;51.090;-115.352;2023-04-05T01:43:42;22.05;23.30
76751;SHT31;65216;51.090;-115.352;2023-04-05T01:46:09;22.05;23.28
76751;SHT31;65216;51.090;-115.352;2023-04-05T01:48:36;22.04;23.30
76751;SHT31;65216;51.090;-115.352;2023-04-05T01:51:04;22.03;23.34
76751;SHT31;65216;51.090;-115.352;2023-04-05T01:53:31;22.01;23.50
76751;SHT31;65216;51.090;-115.352;2023-04-05T01:55:59;22.00;23.51
76751;SHT31;65216;51.090;-115.352;2023-04-05T01:58:27;22.00;23.51
76751;SHT31;65216;51.090;-115.352;2023-04-05T02:00:57;21.98;23.60
76751;SHT31;65216;51.090;-115.352;2023-04-05T02:03:24;21.97;23.58
76751;SHT31;65216;51.090;-115.352;2023-04-05T02:05:51;21.95;23.56
76751;SHT31;65216;51.090;-115.352;2023-04-05T02:08:18;21.94;23.57
76751;SHT31;65216;51.090;-115.352;2023-04-05T02:10:46;21.92;23.61
76751;SHT31;65216;51.090;-115.352;2023-04-05T02:13:20;21.92;23.71
76751;SHT31;65216;51.090;-115.352;2023-04-05T02:15:48;21.90;23.76
76751;SHT31;65216;51.090;-115.352;2023-04-05T02:18:18;21.89;23.69
76751;SHT31;65216;51.090;-115.352;2023-04-05T02:20:50;21.87;23.76
76751;SHT31;65216;51.090;-115.352;2023-04-05T02:23:18;21.88;23.69
76751;SHT31;65216;51.090;-115.352;2023-04-05T02:25:47;21.86;23.74
76751;SHT31;65216;51.090;-115.352;2023-04-05T02:28:14;21.83;23.74
76751;SHT31;65216;51.090;-115.352;2023-04-05T02:30:42;21.82;23.79
76751;SHT31;65216;51.090;-115.352;2023-04-05T02:33:11;21.81;23.74
76751;SHT31;65216;51.090;-115.352;2023-04-05T02:35:38;21.78;23.78
76751;SHT31;65216;51.090;-115.352;2023-04-05T02:38:05;21.77;23.79
76751;SHT31;65216;51.090;-115.352;2023-04-05T02:40:33;21.76;23.82
76751;SHT31;65216;51.090;-115.352;2023-04-05T02:43:01;21.77;23.79
76751;SHT31;65216;51.090;-115.352;2023-04-05T02:45:28;21.75;23.81
76751;SHT31;65216;51.090;-115.352;2023-04-05T02:47:57;21.75;23.87
76751;SHT31;65216;51.090;-115.352;2023-04-05T02:50:24;21.74;23.89
76751;SHT31;65216;51.090;-115.352;2023-04-05T02:52:51;21.72;23.93
76751;SHT31;65216;51.090;-115.352;2023-04-05T02:55:19;21.70;24.00
76751;SHT31;65216;51.090;-115.352;2023-04-05T02:57:46;21.67;24.07
76751;SHT31;65216;51.090;-115.352;2023-04-05T03:00:17;21.67;24.08
76751;SHT31;65216;51.090;-115.352;2023-04-05T03:02:46;21.66;24.09
76751;SHT31;65216;51.090;-115.352;2023-04-05T03:05:17;21.65;24.08
76751;SHT31;65216;51.090;-115.352;2023-04-05T03:07:45;21.63;24.08
76751;SHT31;65216;51.090;-115.352;2023-04-05T03:10:14;21.63;24.08
76751;SHT31;65216;51.090;-115.352;2023-04-05T03:12:45;21.60;24.08
76751;SHT31;65216;51.090;-115.352;2023-04-05T03:15:12;21.59;24.09
76751;SHT31;65216;51.090;-115.352;2023-04-05T03:17:44;21.58;24.09
76751;SHT31;65216;51.090;-115.352;2023-04-05T03:20:11;21.58;24.10
76751;SHT31;65216;51.090;-115.352;2023-04-05T03:22:39;21.56;24.16
76751;SHT31;65216;51.090;-115.352;2023-04-05T03:25:06;21.54;24.17
76751;SHT31;65216;51.090;-115.352;2023-04-05T03:27:33;21.51;24.15
76751;SHT31;65216;51.090;-115.352;2023-04-05T03:30:01;21.50;24.12
76751;SHT31;65216;51.090;-115.352;2023-04-05T03:32:31;21.49;24.18
76751;SHT31;65216;51.090;-115.352;2023-04-05T03:34:58;21.49;24.12
76751;SHT31;65216;51.090;-115.352;2023-04-05T03:37:28;21.47;24.08
76751;SHT31;65216;51.090;-115.352;2023-04-05T03:39:55;21.45;24.03
76751;SHT31;65216;51.090;-115.352;2023-04-05T03:42:22;21.44;23.99
76751;SHT31;65216;51.090;-115.352;2023-04-05T03:44:51;21.43;23.88
76751;SHT31;65216;51.090;-115.352;2023-04-05T03:47:18;21.41;23.80
76751;SHT31;65216;51.090;-115.352;2023-04-05T03:49:45;21.41;23.78
76751;SHT31;65216;51.090;-115.352;2023-04-05T03:52:15;21.40;23.80
76751;SHT31;65216;51.090;-115.352;2023-04-05T03:54:45;21.39;23.76
76751;SHT31;65216;51.090;-115.352;2023-04-05T03:57:12;21.38;23.60
76751;SHT31;65216;51.090;-115.352;2023-04-05T03:59:44;21.36;23.45
76751;SHT31;65216;51.090;-115.352;2023-04-05T04:02:15;21.34;23.37
76751;SHT31;65216;51.090;-115.352;2023-04-05T04:04:42;21.31;23.25
76751;SHT31;65216;51.090;-115.352;2023-04-05T04:07:11;21.30;23.16
76751;SHT31;65216;51.090;-115.352;2023-04-05T04:09:39;21.29;23.04
76751;SHT31;65216;51.090;-115.352;2023-04-05T04:12:06;21.27;22.97
76751;SHT31;65216;51.090;-115.352;2023-04-05T04:14:34;21.26;22.83
76751;SHT31;65216;51.090;-115.352;2023-04-05T04:17:01;21.25;22.77
76751;SHT31;65216;51.090;-115.352;2023-04-05T04:19:30;21.24;22.66
76751;SHT31;65216;51.090;-115.352;2023-04-05T04:22:00;21.24;22.55
76751;SHT31;65216;51.090;-115.352;2023-04-05T04:24:27;21.21;22.45
76751;SHT31;65216;51.090;-115.352;2023-04-05T04:26:56;21.19;22.39
76751;SHT31;65216;51.090;-115.352;2023-04-05T04:29:23;21.19;22.30
76751;SHT31;65216;51.090;-115.352;2023-04-05T04:31:55;21.19;22.22
76751;SHT31;65216;51.090;-115.352;2023-04-05T04:34:22;21.19;22.10
76751;SHT31;65216;51.090;-115.352;2023-04-05T04:36:49;21.20;22.02
76751;SHT31;65216;51.090;-115.352;2023-04-05T04:39:25;21.19;21.93
76751;SHT31;65216;51.090;-115.352;2023-04-05T04:41:56;21.19;21.87
76751;SHT31;65216;51.090;-115.352;2023-04-05T04:44:23;21.19;21.82
76751;SHT31;65216;51.090;-115.352;2023-04-05T04:46:55;21.19;21.73
76751;SHT31;65216;51.090;-115.352;2023-04-05T04:49:22;21.18;21.70
76751;SHT31;65216;51.090;-115.352;2023-04-05T04:51:52;21.18;21.65
76751;SHT31;65216;51.090;-115.352;2023-04-05T04:54:23;21.20;21.57
76751;SHT31;65216;51.090;-115.352;2023-04-05T04:56:53;21.20;21.51
76751;SHT31;65216;51.090;-115.352;2023-04-05T04:59:22;21.21;21.50
76751;SHT31;65216;51.090;-115.352;2023-04-05T05:01:49;21.20;21.43
76751;SHT31;65216;51.090;-115.352;2023-04-05T05:04:16;21.19;21.38
76751;SHT31;65216;51.090;-115.352;2023-04-05T05:06:43;21.18;21.34
76751;SHT31;65216;51.090;-115.352;2023-04-05T05:09:10;21.18;21.27
76751;SHT31;65216;51.090;-115.352;2023-04-05T05:11:37;21.19;21.27
76751;SHT31;65216;51.090;-115.352;2023-04-05T05:14:04;21.19;21.21
76751;SHT31;65216;51.090;-115.352;2023-04-05T05:16:31;21.17;21.16
76751;SHT31;65216;51.090;-115.352;2023-04-05T05:19:01;21.17;21.18
76751;SHT31;65216;51.090;-115.352;2023-04-05T05:21:28;21.17;21.12
76751;SHT31;65216;51.090;-115.352;2023-04-05T05:23:55;21.18;21.15
76751;SHT31;65216;51.090;-115.352;2023-04-05T05:26:22;21.17;21.11
76751;SHT31;65216;51.090;-115.352;2023-04-05T05:28:49;21.17;21.06
76751;SHT31;65216;51.090;-115.352;2023-04-05T05:31:16;21.16;21.03
76751;SHT31;65216;51.090;-115.352;2023-04-05T05:33:43;21.16;21.00
76751;SHT31;65216;51.090;-115.352;2023-04-05T05:36:13;21.16;20.96
76751;SHT31;65216;51.090;-115.352;2023-04-05T05:38:41;21.16;20.94
76751;SHT31;65216;51.090;-115.352;2023-04-05T05:41:07;21.15;20.90
76751;SHT31;65216;51.090;-115.352;2023-04-05T05:43:37;21.15;20.88
76751;SHT31;65216;51.090;-115.352;2023-04-05T05:46:04;21.15;20.84
76751;SHT31;65216;51.090;-115.352;2023-04-05T05:48:31;21.14;20.79
76751;SHT31;65216;51.090;-115.352;2023-04-05T05:50:58;21.13;20.80
76751;SHT31;65216;51.090;-115.352;2023-04-05T05:53:37;21.14;20.75
76751;SHT31;65216;51.090;-115.352;2023-04-05T05:56:08;21.14;20.71
76751;SHT31;65216;51.090;-115.352;2023-04-05T05:58:36;21.14;20.70
76751;SHT31;65216;51.090;-115.352;2023-04-05T06:01:06;21.14;20.71
76751;SHT31;65216;51.090;-115.352;2023-04-05T06:03:36;21.14;20.71
76751;SHT31;65216;51.090;-115.352;2023-04-05T06:06:03;21.13;20.71
76751;SHT31;65216;51.090;-115.352;2023-04-05T06:08:35;21.13;20.67
76751;SHT31;65216;51.090;-115.352;2023-04-05T06:11:05;21.12;20.66
76751;SHT31;65216;51.090;-115.352;2023-04-05T06:13:32;21.11;20.75
76751;SHT31;65216;51.090;-115.352;2023-04-05T06:16:02;21.10;20.84
76751;SHT31;65216;51.090;-115.352;2023-04-05T06:18:29;21.09;21.08
76751;SHT31;65216;51.090;-115.352;2023-04-05T06:20:56;21.08;21.17
76751;SHT31;65216;51.090;-115.352;2023-04-05T06:23:23;21.08;21.36
76751;SHT31;65216;51.090;-115.352;2023-04-05T06:25:50;21.08;21.41
76751;SHT31;65216;51.090;-115.352;2023-04-05T06:28:21;21.08;21.30
76751;SHT31;65216;51.090;-115.352;2023-04-05T06:30:48;21.08;21.20
76751;SHT31;65216;51.090;-115.352;2023-04-05T06:33:15;21.08;21.18
76751;SHT31;65216;51.090;-115.352;2023-04-05T06:35:45;21.08;21.17
76751;SHT31;65216;51.090;-115.352;2023-04-05T06:38:12;21.06;21.22
76751;SHT31;65216;51.090;-115.352;2023-04-05T06:40:39;21.05;21.19
76751;SHT31;65216;51.090;-115.352;2023-04-05T06:43:07;21.03;21.32
76751;SHT31;65216;51.090;-115.352;2023-04-05T06:45:37;21.01;21.35
76751;SHT31;65216;51.090;-115.352;2023-04-05T06:48:04;21.00;21.50
76751;SHT31;65216;51.090;-115.352;2023-04-05T06:50:32;20.98;21.55
76751;SHT31;65216;51.090;-115.352;2023-04-05T06:53:02;20.99;21.59
76751;SHT31;65216;51.090;-115.352;2023-04-05T06:55:32;21.00;21.45
76751;SHT31;65216;51.090;-115.352;2023-04-05T06:58:02;21.00;21.38
76751;SHT31;65216;51.090;-115.352;2023-04-05T07:00:29;20.99;21.41
76751;SHT31;65216;51.090;-115.352;2023-04-05T07:02:56;20.99;21.35
76751;SHT31;65216;51.090;-115.352;2023-04-05T07:05:23;20.99;21.32
76751;SHT31;65216;51.090;-115.352;2023-04-05T07:07:50;20.98;21.26
76751;SHT31;65216;51.090;-115.352;2023-04-05T07:10:17;20.98;21.17
76751;SHT31;65216;51.090;-115.352;2023-04-05T07:12:45;20.99;21.12
76751;SHT31;65216;51.090;-115.352;2023-04-05T07:15:12;20.98;21.29
76751;SHT31;65216;51.090;-115.352;2023-04-05T07:17:39;20.98;21.36
76751;SHT31;65216;51.090;-115.352;2023-04-05T07:20:06;20.97;21.34
76751;SHT31;65216;51.090;-115.352;2023-04-05T07:22:36;20.96;21.21
76751;SHT31;65216;51.090;-115.352;2023-04-05T07:25:03;20.96;21.15
76751;SHT31;65216;51.090;-115.352;2023-04-05T07:27:33;20.96;21.08
76751;SHT31;65216;51.090;-115.352;2023-04-05T07:30:00;20.96;21.04
76751;SHT31;65216;51.090;-115.352;2023-04-05T07:32:29;20.95;20.98
76751;SHT31;65216;51.090;-115.352;2023-04-05T07:34:55;20.94;20.92
76751;SHT31;65216;51.090;-115.352;2023-04-05T07:37:22;20.92;20.89
76751;SHT31;65216;51.090;-115.352;2023-04-05T07:39:50;20.93;20.88
76751;SHT31;65216;51.090;-115.352;2023-04-05T07:42:17;20.92;20.83
76751;SHT31;65216;51.090;-115.352;2023-04-05T07:44:46;20.92;20.78
76751;SHT31;65216;51.090;-115.352;2023-04-05T07:47:13;20.92;20.72
76751;SHT31;65216;51.090;-115.352;2023-04-05T07:49:40;20.91;20.71
76751;SHT31;65216;51.090;-115.352;2023-04-05T07:52:07;20.91;20.66
76751;SHT31;65216;51.090;-115.352;2023-04-05T07:54:34;20.92;20.63
76751;SHT31;65216;51.090;-115.352;2023-04-05T07:57:04;20.91;20.59
76751;SHT31;65216;51.090;-115.352;2023-04-05T07:59:31;20.91;20.55
76751;SHT31;65216;51.090;-115.352;2023-04-05T08:01:59;20.89;20.53
76751;SHT31;65216;51.090;-115.352;2023-04-05T08:04:26;20.88;20.52
76751;SHT31;65216;51.090;-115.352;2023-04-05T08:06:53;20.87;20.49
76751;SHT31;65216;51.090;-115.352;2023-04-05T08:09:20;20.87;20.45
76751;SHT31;65216;51.090;-115.352;2023-04-05T08:11:47;20.88;20.42
76751;SHT31;65216;51.090;-115.352;2023-04-05T08:14:14;20.86;20.35
76751;SHT31;65216;51.090;-115.352;2023-04-05T08:16:42;20.87;20.29
76751;SHT31;65216;51.090;-115.352;2023-04-05T08:19:09;20.86;20.21
76751;SHT31;65216;51.090;-115.352;2023-04-05T08:21:35;20.87;20.12
76751;SHT31;65216;51.090;-115.352;2023-04-05T08:24:03;20.86;20.09
76751;SHT31;65216;51.090;-115.352;2023-04-05T08:26:30;20.86;20.02
76751;SHT31;65216;51.090;-115.352;2023-04-05T08:28:57;20.86;19.96
76751;SHT31;65216;51.090;-115.352;2023-04-05T08:31:24;20.85;19.91
76751;SHT31;65216;51.090;-115.352;2023-04-05T08:33:51;20.85;19.85
76751;SHT31;65216;51.090;-115.352;2023-04-05T08:36:18;20.83;19.81
76751;SHT31;65216;51.090;-115.352;2023-04-05T08:38:45;20.84;19.73
76751;SHT31;65216;51.090;-115.352;2023-04-05T08:43:55;20.84;19.71
76751;SHT31;65216;51.090;-115.352;2023-04-05T08:46:33;20.83;19.63
76751;SHT31;65216;51.090;-115.352;2023-04-05T08:49:04;20.81;19.58
76751;SHT31;65216;51.090;-115.352;2023-04-05T08:51:32;20.81;19.58
76751;SHT31;65216;51.090;-115.352;2023-04-05T08:54:06;20.81;19.52
76751;SHT31;65216;51.090;-115.352;2023-04-05T08:56:33;20.81;19.50
76751;SHT31;65216;51.090;-115.352;2023-04-05T08:59:05;20.81;19.45
76751;SHT31;65216;51.090;-115.352;2023-04-05T09:01:35;20.81;19.41
76751;SHT31;65216;51.090;-115.352;2023-04-05T09:04:25;20.81;19.43
76751;SHT31;65216;51.090;-115.352;2023-04-05T09:06:57;20.81;19.40
76751;SHT31;65216;51.090;-115.352;2023-04-05T09:09:30;20.81;19.39
76751;SHT31;65216;51.090;-115.352;2023-04-05T09:12:08;20.80;19.31
76751;SHT31;65216;51.090;-115.352;2023-04-05T09:14:36;20.80;19.30
76751;SHT31;65216;51.090;-115.352;2023-04-05T09:17:04;20.78;19.28
76751;SHT31;65216;51.090;-115.352;2023-04-05T09:19:32;20.77;19.24
76751;SHT31;65216;51.090;-115.352;2023-04-05T09:22:02;20.78;19.20
76751;SHT31;65216;51.090;-115.352;2023-04-05T09:24:35;20.77;19.17
76751;SHT31;65216;51.090;-115.352;2023-04-05T09:27:06;20.76;19.16
76751;SHT31;65216;51.090;-115.352;2023-04-05T09:29:43;20.76;19.20
76751;SHT31;65216;51.090;-115.352;2023-04-05T09:32:17;20.76;19.26
76751;SHT31;65216;51.090;-115.352;2023-04-05T09:34:45;20.76;19.19
76751;SHT31;65216;51.090;-115.352;2023-04-05T09:37:14;20.75;19.16
76751;SHT31;65216;51.090;-115.352;2023-04-05T09:39:44;20.74;19.15
76751;SHT31;65216;51.090;-115.352;2023-04-05T09:42:17;20.74;19.12
76751;SHT31;65216;51.090;-115.352;2023-04-05T09:47:27;20.74;19.09
76751;SHT31;65216;51.090;-115.352;2023-04-05T09:49:59;20.74;19.07
76751;SHT31;65216;51.090;-115.352;2023-04-05T09:52:42;20.73;19.08
76751;SHT31;65216;51.090;-115.352;2023-04-05T09:55:10;20.74;19.07
76751;SHT31;65216;51.090;-115.352;2023-04-05T09:57:40;20.74;19.02
76751;SHT31;65216;51.090;-115.352;2023-04-05T10:00:18;20.74;18.99
76751;SHT31;65216;51.090;-115.352;2023-04-05T10:02:51;20.74;18.96
76751;SHT31;65216;51.090;-115.352;2023-04-05T10:05:24;20.73;18.97
76751;SHT31;65216;51.090;-115.352;2023-04-05T10:07:56;20.71;18.93
76751;SHT31;65216;51.090;-115.352;2023-04-05T10:10:24;20.73;18.92
76751;SHT31;65216;51.090;-115.352;2023-04-05T10:12:51;20.73;18.90
76751;SHT31;65216;51.090;-115.352;2023-04-05T10:15:19;20.72;18.82
76751;SHT31;65216;51.090;-115.352;2023-04-05T10:17:56;20.70;18.81
76751;SHT31;65216;51.090;-115.352;2023-04-05T10:20:50;20.70;18.80
76751;SHT31;65216;51.090;-115.352;2023-04-05T10:23:23;20.69;18.81
76751;SHT31;65216;51.090;-115.352;2023-04-05T10:26:00;20.69;18.77
76751;SHT31;65216;51.090;-115.352;2023-04-05T10:28:42;20.68;18.76
76751;SHT31;65216;51.090;-115.352;2023-04-05T10:33:52;20.65;18.73
76751;SHT31;65216;51.090;-115.352;2023-04-05T10:36:41;20.63;18.70
76751;SHT31;65216;51.090;-115.352;2023-04-05T10:39:25;20.61;18.69
76751;SHT31;65216;51.090;-115.352;2023-04-05T10:42:12;20.58;18.70
76751;SHT31;65216;51.090;-115.352;2023-04-05T10:45:05;20.57;18.70
76751;SHT31;65216;51.090;-115.352;2023-04-05T10:47:37;20.56;18.71
76751;SHT31;65216;51.090;-115.352;2023-04-05T10:50:23;20.53;18.66
76751;SHT31;65216;51.090;-115.352;2023-04-05T10:52:51;20.51;18.67
76751;SHT31;65216;51.090;-115.352;2023-04-05T10:55:22;20.50;18.63
76751;SHT31;65216;51.090;-115.352;2023-04-05T10:57:49;20.48;18.62
76751;SHT31;65216;51.090;-115.352;2023-04-05T11:00:19;20.46;18.62
76751;SHT31;65216;51.090;-115.352;2023-04-05T11:02:52;20.44;18.59
76751;SHT31;65216;51.090;-115.352;2023-04-05T11:05:29;20.42;18.60
76751;SHT31;65216;51.090;-115.352;2023-04-05T11:07:59;20.40;18.58
76751;SHT31;65216;51.090;-115.352;2023-04-05T11:10:36;20.38;18.59
76751;SHT31;65216;51.090;-115.352;2023-04-05T11:13:08;20.36;18.59
76751;SHT31;65216;51.090;-115.352;2023-04-05T11:15:37;20.34;18.60
76751;SHT31;65216;51.090;-115.352;2023-04-05T11:21:04;20.32;18.61
76751;SHT31;65216;51.090;-115.352;2023-04-05T11:23:32;20.31;18.60
76751;SHT31;65216;51.090;-115.352;2023-04-05T11:29:06;20.30;18.57
76751;SHT31;65216;51.090;-115.352;2023-04-05T11:31:55;20.29;18.52
76751;SHT31;65216;51.090;-115.352;2023-04-05T11:34:24;20.28;18.55
76751;SHT31;65216;51.090;-115.352;2023-04-05T11:36:51;20.28;18.52
76751;SHT31;65216;51.090;-115.352;2023-04-05T11:41:52;20.25;18.49
76751;SHT31;65216;51.090;-115.352;2023-04-05T11:44:20;20.25;18.47
76751;SHT31;65216;51.090;-115.352;2023-04-05T11:46:49;20.23;18.50
76751;SHT31;65216;51.090;-115.352;2023-04-05T11:49:21;20.23;18.47
76751;SHT31;65216;51.090;-115.352;2023-04-05T11:51:50;20.22;18.47
76751;SHT31;65216;51.090;-115.352;2023-04-05T11:54:28;20.21;18.45
76751;SHT31;65216;51.090;-115.352;2023-04-05T11:56:59;20.20;18.43
76751;SHT31;65216;51.090;-115.352;2023-04-05T11:59:27;20.20;18.41
76751;SHT31;65216;51.090;-115.352;2023-04-05T12:02:02;20.20;18.41
76751;SHT31;65216;51.090;-115.352;2023-04-05T12:04:33;20.20;18.40
76751;SHT31;65216;51.090;-115.352;2023-04-05T12:07:07;20.19;18.40
76751;SHT31;65216;51.090;-115.352;2023-04-05T12:12:41;20.15;18.38
76751;SHT31;65216;51.090;-115.352;2023-04-05T12:15:12;20.16;18.41
76751;SHT31;65216;51.090;-115.352;2023-04-05T12:17:43;20.14;18.40
76751;SHT31;65216;51.090;-115.352;2023-04-05T12:20:14;20.15;18.40
76751;SHT31;65216;51.090;-115.352;2023-04-05T12:22:51;20.15;18.42
76751;SHT31;65216;51.090;-115.352;2023-04-05T12:25:21;20.15;18.36
76751;SHT31;65216;51.090;-115.352;2023-04-05T12:27:49;20.15;18.38
76751;SHT31;65216;51.090;-115.352;2023-04-05T12:30:18;20.12;18.35
76751;SHT31;65216;51.090;-115.352;2023-04-05T12:32:54;20.13;18.36
76751;SHT31;65216;51.090;-115.352;2023-04-05T12:35:22;20.13;18.34
76751;SHT31;65216;51.090;-115.352;2023-04-05T12:37:57;20.14;18.34
76751;SHT31;65216;51.090;-115.352;2023-04-05T12:40:30;20.13;18.33
76751;SHT31;65216;51.090;-115.352;2023-04-05T12:43:02;20.14;18.38
76751;SHT31;65216;51.090;-115.352;2023-04-05T12:45:32;20.14;18.38
76751;SHT31;65216;51.090;-115.352;2023-04-05T12:48:09;20.14;18.36
76751;SHT31;65216;51.090;-115.352;2023-04-05T12:50:53;20.14;18.36
76751;SHT31;65216;51.090;-115.352;2023-04-05T12:53:25;20.14;18.38
76751;SHT31;65216;51.090;-115.352;2023-04-05T12:55:53;20.14;18.31
76751;SHT31;65216;51.090;-115.352;2023-04-05T12:58:34;20.13;18.34
76751;SHT31;65216;51.090;-115.352;2023-04-05T13:01:05;20.13;18.33
76751;SHT31;65216;51.090;-115.352;2023-04-05T13:03:33;20.13;18.36
76751;SHT31;65216;51.090;-115.352;2023-04-05T13:06:00;20.12;18.32
76751;SHT31;65216;51.090;-115.352;2023-04-05T13:08:27;20.12;18.34
76751;SHT31;65216;51.090;-115.352;2023-04-05T13:10:53;20.11;18.36
76751;SHT31;65216;51.090;-115.352;2023-04-05T13:13:20;20.11;18.38
76751;SHT31;65216;51.090;-115.352;2023-04-05T13:15:47;20.10;18.35
76751;SHT31;65216;51.090;-115.352;2023-04-05T13:18:14;20.10;18.39
76751;SHT31;65216;51.090;-115.352;2023-04-05T13:20:41;20.10;18.39
76751;SHT31;65216;51.090;-115.352;2023-04-05T13:23:09;20.10;18.39
76751;SHT31;65216;51.090;-115.352;2023-04-05T13:25:41;20.09;18.38
76751;SHT31;65216;51.090;-115.352;2023-04-05T13:28:12;20.08;18.40
76751;SHT31;65216;51.090;-115.352;2023-04-05T13:30:39;20.07;18.40
76751;SHT31;65216;51.090;-115.352;2023-04-05T13:33:06;20.07;18.41
76751;SHT31;65216;51.090;-115.352;2023-04-05T13:35:36;20.09;18.43
76751;SHT31;65216;51.090;-115.352;2023-04-05T13:38:03;20.09;18.40
76751;SHT31;65216;51.090;-115.352;2023-04-05T13:40:33;20.08;18.43
76751;SHT31;65216;51.090;-115.352;2023-04-05T13:43:02;20.08;18.40
76751;SHT31;65216;51.090;-115.352;2023-04-05T13:45:29;20.08;18.42
76751;SHT31;65216;51.090;-115.352;2023-04-05T13:47:57;20.08;18.42
76751;SHT31;65216;51.090;-115.352;2023-04-05T13:50:24;20.09;18.44
76751;SHT31;65216;51.090;-115.352;2023-04-05T13:52:51;20.09;18.45
76751;SHT31;65216;51.090;-115.352;2023-04-05T13:55:17;20.10;18.49
76751;SHT31;65216;51.090;-115.352;2023-04-05T13:57:45;20.10;18.53
76751;SHT31;65216;51.090;-115.352;2023-04-05T14:00:15;20.09;18.56
76751;SHT31;65216;51.090;-115.352;2023-04-05T14:02:42;20.10;18.58
76751;SHT31;65216;51.090;-115.352;2023-04-05T14:05:10;20.10;18.60
76751;SHT31;65216;51.090;-115.352;2023-04-05T14:07:37;20.10;18.61
76751;SHT31;65216;51.090;-115.352;2023-04-05T14:10:04;20.09;18.60
76751;SHT31;65216;51.090;-115.352;2023-04-05T14:12:33;20.09;18.64
76751;SHT31;65216;51.090;-115.352;2023-04-05T14:15:00;20.08;18.66
76751;SHT31;65216;51.090;-115.352;2023-04-05T14:17:27;20.08;18.70
76751;SHT31;65216;51.090;-115.352;2023-04-05T14:19:57;20.08;18.69
76751;SHT31;65216;51.090;-115.352;2023-04-05T14:22:24;20.10;18.71
76751;SHT31;65216;51.090;-115.352;2023-04-05T14:24:51;20.10;18.70
76751;SHT31;65216;51.090;-115.352;2023-04-05T14:27:18;20.09;18.71
76751;SHT31;65216;51.090;-115.352;2023-04-05T14:29:52;20.08;18.70
76751;SHT31;65216;51.090;-115.352;2023-04-05T14:32:24;20.08;18.71
76751;SHT31;65216;51.090;-115.352;2023-04-05T14:34:51;20.08;18.70
76751;SHT31;65216;51.090;-115.352;2023-04-05T14:37:18;20.07;18.70
76751;SHT31;65216;51.090;-115.352;2023-04-05T14:39:45;20.09;18.69
76751;SHT31;65216;51.090;-115.352;2023-04-05T14:42:15;20.09;18.68
76751;SHT31;65216;51.090;-115.352;2023-04-05T14:44:42;20.09;18.60
76751;SHT31;65216;51.090;-115.352;2023-04-05T14:47:10;20.10;18.60
76751;SHT31;65216;51.090;-115.352;2023-04-05T14:49:37;20.11;18.61
76751;SHT31;65216;51.090;-115.352;2023-04-05T14:52:06;20.12;18.64
76751;SHT31;65216;51.090;-115.352;2023-04-05T14:54:34;20.12;18.72
76751;SHT31;65216;51.090;-115.352;2023-04-05T14:57:01;20.12;18.80
76751;SHT31;65216;51.090;-115.352;2023-04-05T14:59:28;20.12;18.90
76751;SHT31;65216;51.090;-115.352;2023-04-05T15:01:55;20.13;18.93
76751;SHT31;65216;51.090;-115.352;2023-04-05T15:04:26;20.13;19.00
76751;SHT31;65216;51.090;-115.352;2023-04-05T15:06:57;20.14;19.06
76751;SHT31;65216;51.090;-115.352;2023-04-05T15:09:24;20.14;19.15
76751;SHT31;65216;51.090;-115.352;2023-04-05T15:11:54;20.14;19.21
76751;SHT31;65216;51.090;-115.352;2023-04-05T15:14:25;20.15;19.25
76751;SHT31;65216;51.090;-115.352;2023-04-05T15:16:52;20.15;19.34
76751;SHT31;65216;51.090;-115.352;2023-04-05T15:19:19;20.15;19.46
76751;SHT31;65216;51.090;-115.352;2023-04-05T15:21:46;20.17;19.54
76751;SHT31;65216;51.090;-115.352;2023-04-05T15:24:13;20.18;19.60
76751;SHT31;65216;51.090;-115.352;2023-04-05T15:26:40;20.18;19.69